Terminal Aerodrome Forecast
Issued by NWS

Home | Current Version | Previous Version | Text Only | Print | Product List | Glossary On
Versions: 1 2 3 4 5 6 7 8 9 10 11 12
000
FTUS45 KABQ 300531
TAFSAF
TAF
KSAF 300531Z 3006/3106 13011KT P6SM FEW045 SCT140
     FM300900 08008KT P6SM SKC
     FM301600 15010KT P6SM FEW150
     FM301900 22012G20KT P6SM SCT150
     FM310200 12010KT P6SM BKN120=

USA.gov is the U.S. government's official web portal to all federal, state and local government web resources and services.